Time;durP1;ratioP1;P1;durP2;ratioP2;P2;SDS_P1;SDS_P2;PMS_P1;PMS_P2;Temp;Humidity;BMP_temperature;BMP_pressure;BME280_temperature;BME280_humidity;BME280_pressure;Samples;Min_cycle;Max_cycle;Signal;HPM_P1;HPM_P2
2021/07/05 00:01:25;;;;;;;0.63;0.50;;;;;;;13.13;100.00;98676.81;5132948;27;20042;-52
2021/07/05 00:04:28;;;;;;;1.45;0.25;;;;;;;13.13;100.00;98679.63;5132790;27;20050;-53
2021/07/05 00:07:31;;;;;;;0.20;0.20;;;;;;;13.14;100.00;98681.16;5132636;27;20050;-53
2021/07/05 00:10:35;;;;;;;1.67;0.17;;;;;;;13.16;100.00;98678.59;5132888;27;20077;-53
2021/07/05 00:13:39;;;;;;;2.72;0.57;;;;;;;13.18;100.00;98686.44;5132939;27;20053;-52
2021/07/05 00:16:42;;;;;;;1.13;0.63;;;;;;;13.17;100.00;98685.69;5132773;27;20054;-52
2021/07/05 00:19:46;;;;;;;3.72;0.65;;;;;;;13.16;100.00;98673.00;5132892;27;20490;-53
2021/07/05 00:22:50;;;;;;;0.98;0.30;;;;;;;13.18;100.00;98681.63;5132389;27;20054;-53
2021/07/05 00:25:54;;;;;;;1.33;0.60;;;;;;;13.18;100.00;98686.44;5111698;28;20050;-53
2021/07/05 00:28:57;;;;;;;1.95;0.57;;;;;;;13.19;100.00;98680.31;5112024;28;20042;-52
2021/07/05 00:32:01;;;;;;;1.88;0.35;;;;;;;13.17;100.00;98680.09;5112242;28;20054;-52
2021/07/05 00:35:04;;;;;;;3.40;0.68;;;;;;;13.19;100.00;98674.00;5112006;28;20058;-53
2021/07/05 00:38:08;;;;;;;0.30;0.20;;;;;;;13.19;100.00;98677.53;5111619;28;20058;-53
2021/07/05 00:41:12;;;;;;;1.00;0.30;;;;;;;13.19;100.00;98669.13;5111372;28;20059;-53
2021/07/05 00:44:15;;;;;;;2.28;1.13;;;;;;;13.20;100.00;98673.47;5111470;28;20054;-53
2021/07/05 00:47:18;;;;;;;0.63;0.57;;;;;;;13.19;100.00;98671.19;5111904;28;20514;-53
2021/07/05 00:50:24;;;;;;;2.42;1.00;;;;;;;13.17;100.00;98671.69;5111354;28;20031;-53
2021/07/05 00:53:28;;;;;;;2.28;0.45;;;;;;;13.21;100.00;98680.56;5111230;28;20055;-53
2021/07/05 00:56:32;;;;;;;3.70;0.75;;;;;;;13.20;100.00;98675.50;5111864;28;20391;-53
2021/07/05 00:59:36;;;;;;;0.85;0.70;;;;;;;13.19;100.00;98671.94;5112906;28;20380;-53
2021/07/05 01:02:40;;;;;;;4.15;0.90;;;;;;;13.21;100.00;98674.97;5112889;28;20054;-53
2021/07/05 01:05:43;;;;;;;2.72;0.68;;;;;;;13.23;100.00;98669.59;5113238;28;20105;-53
2021/07/05 01:08:47;;;;;;;1.52;0.80;;;;;;;13.20;100.00;98678.28;5113222;28;20047;-53
2021/07/05 01:11:50;;;;;;;11.13;1.85;;;;;;;13.19;100.00;98671.94;5113268;28;20050;-53
2021/07/05 01:14:53;;;;;;;2.60;0.63;;;;;;;13.16;100.00;98673.00;5112939;28;20497;-53
2021/07/05 01:17:58;;;;;;;2.50;1.02;;;;;;;13.12;100.00;98671.75;5113349;28;20046;-53
2021/07/05 01:21:02;;;;;;;5.15;0.93;;;;;;;13.13;100.00;98664.88;5113161;28;20043;-53
2021/07/05 01:24:06;;;;;;;2.80;1.00;;;;;;;13.12;100.00;98666.16;5118995;27;20049;-53
2021/07/05 01:27:10;;;;;;;3.80;1.23;;;;;;;13.13;100.00;98668.44;5106972;28;20082;-53
2021/07/05 01:30:17;;;;;;;2.65;0.30;;;;;;;13.10;100.00;98661.13;5131156;28;20047;-53
2021/07/05 01:33:20;;;;;;;1.65;0.85;;;;;;;13.05;100.00;98656.31;5131125;28;20058;-53
2021/07/05 01:36:23;;;;;;;1.35;0.50;;;;;;;13.05;100.00;98664.72;5131179;28;20054;-53
2021/07/05 01:39:27;;;;;;;0.80;0.30;;;;;;;13.14;100.00;98661.59;5130860;28;20066;-53
2021/07/05 01:42:30;;;;;;;1.88;0.88;;;;;;;13.15;100.00;98665.88;5131328;28;20058;-53
2021/07/05 01:45:34;;;;;;;4.57;0.82;;;;;;;13.09;100.00;98673.56;5130979;28;20402;-53
2021/07/05 01:48:38;;;;;;;1.05;0.70;;;;;;;13.07;100.00;98672.56;5130958;28;20637;-53
2021/07/05 01:51:41;;;;;;;1.30;0.70;;;;;;;13.08;100.00;98666.44;5131082;28;20498;-53
2021/07/05 01:54:44;;;;;;;4.65;0.93;;;;;;;13.13;100.00;98668.44;5131585;28;20482;-53
2021/07/05 01:57:48;;;;;;;1.17;0.57;;;;;;;13.14;100.00;98667.16;5133144;28;20367;-54
2021/07/05 02:00:53;;;;;;;1.35;0.55;;;;;;;13.09;100.00;98673.56;5133385;28;20529;-53
2021/07/05 02:03:56;;;;;;;1.30;0.50;;;;;;;13.13;100.00;98667.66;5133188;28;20046;-53
2021/07/05 02:07:00;;;;;;;1.88;0.90;;;;;;;13.13;100.00;98662.84;5132884;28;20070;-53
2021/07/05 02:10:10;;;;;;;5.38;1.17;;;;;;;13.12;100.00;98661.34;5132951;28;20046;-53
2021/07/05 02:13:23;;;;;;;0.60;0.52;;;;;;;13.13;100.00;98665.66;5133222;28;20490;-54
2021/07/05 02:16:27;;;;;;;2.30;0.57;;;;;;;13.10;100.00;98655.53;5136712;27;20050;-53
2021/07/05 02:19:30;;;;;;;1.13;0.45;;;;;;;13.12;100.00;98664.16;5136491;27;20050;-54
2021/07/05 02:22:33;;;;;;;1.38;0.68;;;;;;;13.11;100.00;98659.81;5136905;27;20046;-54
2021/07/05 02:25:38;;;;;;;0.45;0.30;;;;;;;13.11;100.00;98659.06;5136378;27;20042;-54
2021/07/05 02:28:41;;;;;;;1.08;0.57;;;;;;;13.07;100.00;98659.34;5136671;27;20049;-54
2021/07/05 02:31:44;;;;;;;2.35;0.38;;;;;;;13.07;100.00;98658.59;5136689;27;20066;-53
2021/07/05 02:34:48;;;;;;;3.47;0.85;;;;;;;13.06;100.00;98663.41;5137220;27;20051;-54
2021/07/05 02:37:52;;;;;;;2.25;0.65;;;;;;;13.07;100.00;98658.59;5123460;27;20050;-53
2021/07/05 02:40:56;;;;;;;0.77;0.40;;;;;;;13.06;100.00;98663.41;5124089;27;20407;-54
2021/07/05 02:44:00;;;;;;;2.85;1.10;;;;;;;13.03;100.00;98653.25;5136249;27;20084;-54
2021/07/05 02:47:03;;;;;;;1.17;0.43;;;;;;;13.02;100.00;98657.31;5136338;27;20046;-55
2021/07/05 02:50:09;;;;;;;1.00;0.80;;;;;;;13.04;100.00;98654.75;5135717;27;20046;-55
2021/07/05 02:53:14;;;;;;;5.47;1.02;;;;;;;13.00;100.00;98665.47;5136616;27;20385;-55
2021/07/05 02:56:17;;;;;;;0.85;0.30;;;;;;;12.97;100.00;98655.34;5135649;27;20498;-54
2021/07/05 02:59:20;;;;;;;3.55;0.93;;;;;;;12.92;100.00;98656.16;5136138;27;20050;-55
2021/07/05 03:02:23;;;;;;;0.43;0.40;;;;;;;12.87;100.00;98656.94;5135624;27;20046;-55
2021/07/05 03:05:29;;;;;;;0.80;0.52;;;;;;;12.86;100.00;98652.66;5136230;27;20046;-54
2021/07/05 03:08:33;;;;;;;1.05;0.30;;;;;;;12.85;100.00;98651.88;5135703;27;20054;-55
2021/07/05 03:11:36;;;;;;;1.23;0.35;;;;;;;12.86;100.00;98658.22;5136407;27;20383;-54
2021/07/05 03:14:39;;;;;;;0.55;0.40;;;;;;;12.86;100.00;98656.19;5135312;27;20050;-55
2021/07/05 03:17:45;;;;;;;0.70;0.65;;;;;;;12.87;100.00;98651.34;5135848;27;20054;-54
2021/07/05 03:20:50;;;;;;;0.98;0.47;;;;;;;12.83;100.00;98648.09;5136078;27;20109;-55
2021/07/05 03:23:55;;;;;;;1.35;0.40;;;;;;;12.85;100.00;98648.31;5131937;27;20039;-55
2021/07/05 03:26:59;;;;;;;0.40;0.28;;;;;;;12.85;100.00;98651.13;5114477;28;20050;-55
2021/07/05 03:30:05;;;;;;;0.77;0.30;;;;;;;12.84;100.00;98655.19;5114975;28;20046;-54
2021/07/05 03:33:08;;;;;;;3.50;0.90;;;;;;;12.83;100.00;98650.88;5114796;28;20392;-54
2021/07/05 03:36:12;;;;;;;3.22;1.27;;;;;;;12.79;100.00;98650.41;5115240;28;20042;-54
2021/07/05 03:39:15;;;;;;;3.88;1.38;;;;;;;12.79;100.00;98656.00;5114049;28;20055;-55
2021/07/05 03:42:19;;;;;;;5.68;1.65;;;;;;;12.79;100.00;98656.75;5114909;28;20054;-55
2021/07/05 03:45:25;;;;;;;1.42;0.88;;;;;;;12.82;100.00;98646.59;5114517;28;20055;-55
2021/07/05 03:48:29;;;;;;;3.88;1.60;;;;;;;12.79;100.00;98656.75;5114772;28;20054;-55
2021/07/05 03:51:32;;;;;;;0.95;0.55;;;;;;;12.81;100.00;98664.63;5114091;28;20526;-54
2021/07/05 03:54:36;;;;;;;2.10;1.67;;;;;;;12.80;100.00;98657.50;5114562;28;20050;-54
2021/07/05 03:57:41;;;;;;;3.25;0.85;;;;;;;12.76;100.00;98657.03;5114179;28;20054;-54
2021/07/05 04:00:44;;;;;;;4.15;0.90;;;;;;;12.70;100.00;98659.09;5114533;28;20050;-54
2021/07/05 04:03:47;;;;;;;3.17;0.98;;;;;;;12.67;100.00;98648.97;5101325;28;20466;-54
2021/07/05 04:06:52;;;;;;;0.57;0.40;;;;;;;12.62;100.00;98655.38;5114665;28;20039;-55
2021/07/05 04:09:57;;;;;;;3.58;1.58;;;;;;;12.61;100.00;98651.81;5114107;28;20046;-54
2021/07/05 04:13:04;;;;;;;5.95;1.17;;;;;;;12.59;100.00;98653.59;5114445;28;20050;-55
2021/07/05 04:16:08;;;;;;;1.60;0.98;;;;;;;12.59;100.00;98661.97;5114009;28;20046;-54
2021/07/05 04:19:11;;;;;;;2.72;0.82;;;;;;;12.58;100.00;98652.09;5114539;28;20356;-54
2021/07/05 04:22:16;;;;;;;3.50;0.98;;;;;;;12.58;100.00;98652.09;5114183;28;20514;-54
2021/07/05 04:25:21;;;;;;;2.13;0.77;;;;;;;12.59;100.00;98650.81;5130191;27;20050;-54
2021/07/05 04:28:24;;;;;;;1.55;0.47;;;;;;;12.61;100.00;98645.44;5134063;27;20050;-54
2021/07/05 04:31:28;;;;;;;9.40;0.77;;;;;;;12.61;100.00;98651.81;5134407;27;20081;-55
2021/07/05 04:34:33;;;;;;;3.42;0.43;;;;;;;12.61;100.00;98651.81;5134345;27;20390;-54
2021/07/05 04:37:39;;;;;;;2.05;1.13;;;;;;;12.64;100.00;98655.59;5133384;27;20046;-55
2021/07/05 04:40:43;;;;;;;1.58;0.68;;;;;;;12.62;100.00;98652.56;5133824;27;20038;-55
2021/07/05 04:43:47;;;;;;;2.50;1.10;;;;;;;12.65;100.00;98657.09;5133985;27;20510;-55
2021/07/05 04:46:51;;;;;;;9.10;0.65;;;;;;;12.66;100.00;98653.03;5134227;27;20050;-55
2021/07/05 04:49:54;;;;;;;15.85;0.77;;;;;;;12.66;100.00;98650.25;5134068;27;20053;-55
2021/07/05 04:52:59;;;;;;;0.93;0.40;;;;;;;12.66;100.00;98647.47;5133682;27;20050;-55
2021/07/05 04:56:03;;;;;;;1.48;0.38;;;;;;;12.67;100.00;98648.97;5133677;27;20046;-55
2021/07/05 04:59:07;;;;;;;0.80;0.38;;;;;;;12.64;100.00;98650.00;5133918;27;20053;-55
2021/07/05 05:02:10;;;;;;;2.53;0.45;;;;;;;12.64;100.00;98650.00;5133901;27;20054;-55
2021/07/05 05:05:14;;;;;;;2.40;0.40;;;;;;;12.67;100.00;98651.75;5133599;27;20046;-55
2021/07/05 05:08:17;;;;;;;6.82;1.33;;;;;;;12.66;100.00;98647.47;5134008;27;20092;-55
2021/07/05 05:11:21;;;;;;;2.58;0.88;;;;;;;12.67;100.00;98641.34;5133957;27;20383;-55
2021/07/05 05:14:25;;;;;;;1.98;0.55;;;;;;;12.66;100.00;98647.47;5133794;27;20403;-55
2021/07/05 05:17:28;;;;;;;1.20;0.45;;;;;;;12.67;100.00;98651.75;5133585;27;20050;-55
2021/07/05 05:20:32;;;;;;;3.78;0.52;;;;;;;12.67;100.00;98638.56;5133399;27;20390;-55
2021/07/05 05:23:35;;;;;;;4.93;1.10;;;;;;;12.66;100.00;98648.22;5132141;27;20046;-55
2021/07/05 05:26:39;;;;;;;1.88;0.57;;;;;;;12.68;100.00;98650.50;5112897;28;20043;-55
2021/07/05 05:29:43;;;;;;;3.85;0.82;;;;;;;12.68;100.00;98644.91;5112460;28;20502;-55
2021/07/05 05:32:48;;;;;;;1.23;0.68;;;;;;;12.72;100.00;98634.19;5113167;28;20047;-55
2021/07/05 05:35:52;;;;;;;1.95;0.63;;;;;;;12.71;100.00;98643.88;5112916;28;20496;-55
2021/07/05 05:38:55;;;;;;;2.25;0.90;;;;;;;12.68;100.00;98642.09;5112524;28;20399;-55
2021/07/05 05:41:59;;;;;;;3.65;0.43;;;;;;;12.73;100.00;98650.44;5111408;28;20050;-55
2021/07/05 05:45:04;;;;;;;4.55;0.63;;;;;;;12.74;100.00;98642.81;5111515;28;20051;-55
2021/07/05 05:48:08;;;;;;;5.43;0.98;;;;;;;12.75;100.00;98638.75;5112661;28;20371;-55
2021/07/05 05:51:12;;;;;;;1.83;0.40;;;;;;;12.77;100.00;98636.19;5115923;28;20051;-54
2021/07/05 05:54:16;;;;;;;0.85;0.30;;;;;;;12.76;100.00;98646.63;5104526;28;20062;-55
2021/07/05 05:57:26;;;;;;;1.58;0.65;;;;;;;12.76;100.00;98641.03;5116865;28;20415;-55
2021/07/05 06:00:30;;;;;;;3.77;0.70;;;;;;;12.76;100.00;98635.44;5116995;28;20051;-55
2021/07/05 06:03:34;;;;;;;0.90;0.10;;;;;;;12.73;100.00;98641.31;5116965;28;20046;-55
2021/07/05 06:06:38;;;;;;;13.40;1.60;;;;;;;12.67;100.00;98637.78;5116503;28;20042;-55
2021/07/05 06:09:42;;;;;;;1.45;0.63;;;;;;;12.61;100.00;98637.84;5116733;28;20046;-55
2021/07/05 06:12:46;;;;;;;1.70;0.43;;;;;;;12.56;100.00;98629.50;5124426;27;20066;-55
2021/07/05 06:15:49;;;;;;;5.57;1.80;;;;;;;12.53;100.00;98633.34;5135956;27;20054;-55
2021/07/05 06:18:53;;;;;;;1.45;0.50;;;;;;;12.62;100.00;98633.03;5135927;27;20042;-55
2021/07/05 06:21:56;;;;;;;1.50;0.20;;;;;;;12.84;100.00;98638.44;5136110;27;20042;-55
2021/07/05 06:25:00;;;;;;;0.73;0.52;;;;;;;13.05;100.00;98636.00;5135968;27;20046;-55
2021/07/05 06:28:04;;;;;;;24.65;1.73;;;;;;;13.15;100.00;98626.75;5135901;27;20673;-55
2021/07/05 06:31:08;;;;;;;2.35;1.05;;;;;;;13.21;100.00;98630.22;5135649;27;20398;-55
2021/07/05 06:34:11;;;;;;;1.60;0.70;;;;;;;13.39;100.00;98626.00;5135828;27;20058;-55
2021/07/05 06:37:14;;;;;;;1.98;0.93;;;;;;;13.41;100.00;98638.19;5135941;27;20038;-54
2021/07/05 06:40:20;;;;;;;2.97;0.82;;;;;;;13.40;100.00;98631.09;5132303;27;20088;-55
2021/07/05 06:43:24;;;;;;;3.58;0.40;;;;;;;13.37;100.00;98629.31;5135283;27;20101;-55
2021/07/05 06:46:28;;;;;;;4.22;1.25;;;;;;;13.39;100.00;98626.75;5136274;27;20367;-54
2021/07/05 06:49:31;;;;;;;0.82;0.40;;;;;;;13.59;100.00;98631.13;5135998;27;20042;-54
2021/07/05 06:52:35;;;;;;;2.00;0.50;;;;;;;13.66;100.00;98639.66;5123497;27;20054;-54
2021/07/05 06:55:39;;;;;;;1.35;0.38;;;;;;;13.63;100.00;98637.94;5136039;27;20101;-54
2021/07/05 06:58:42;;;;;;;4.28;1.02;;;;;;;13.58;100.00;98644.34;5135570;27;20046;-54
2021/07/05 07:01:46;;;;;;;0.52;0.40;;;;;;;13.68;100.00;98644.75;5135938;27;20041;-54
2021/07/05 07:04:50;;;;;;;3.40;0.88;;;;;;;13.84;100.00;98651.44;5136177;27;20584;-55
2021/07/05 07:07:56;;;;;;;3.85;1.15;;;;;;;14.03;100.00;98652.22;5135885;27;20046;-55
2021/07/05 07:11:00;;;;;;;2.42;0.60;;;;;;;13.99;100.00;98655.31;5135857;27;20042;-55
2021/07/05 07:14:03;;;;;;;3.55;0.70;;;;;;;13.98;100.00;98645.41;5136226;27;20058;-55
2021/07/05 07:18:15;;;;;;;1.38;0.60;;;;;;;13.88;100.00;98649.09;5136497;27;20046;-55
2021/07/05 07:20:39;;;;;;;3.00;1.25;;;;;;;13.95;100.00;98656.88;5135832;27;20042;-55
2021/07/05 07:23:43;;;;;;;4.63;0.55;;;;;;;14.08;100.00;98654.94;5136119;27;20057;-55
2021/07/05 07:26:47;;;;;;;0.93;0.63;;;;;;;14.25;100.00;98661.06;5134256;27;20050;-55
2021/07/05 07:29:51;;;;;;;0.85;0.40;;;;;;;14.41;100.00;98662.16;5135947;27;20042;-56
2021/07/05 07:32:54;;;;;;;1.58;0.20;;;;;;;14.67;100.00;98664.34;5134534;27;20510;-55
2021/07/05 07:36:01;;;;;;;2.33;0.82;;;;;;;15.07;100.00;98657.59;5135653;27;20042;-55
2021/07/05 07:39:09;;;;;;;2.33;0.50;;;;;;;15.05;100.00;98665.78;5135234;27;20046;-55
2021/07/05 07:42:13;;;;;;;0.43;0.20;;;;;;;15.25;100.00;98661.59;5134826;27;20506;-55
2021/07/05 07:45:18;;;;;;;1.90;0.35;;;;;;;15.54;100.00;98657.81;5135254;27;20046;-55
2021/07/05 07:48:22;;;;;;;2.05;0.35;;;;;;;15.77;100.00;98673.69;5135245;27;20050;-52
2021/07/05 07:51:26;;;;;;;1.50;0.65;;;;;;;15.98;100.00;98670.97;5135258;27;20039;-52
2021/07/05 07:54:29;;;;;;;2.33;0.57;;;;;;;15.97;100.00;98663.84;5135503;27;20054;-52
2021/07/05 07:57:33;;;;;;;0.57;0.40;;;;;;;16.11;100.00;98662.53;5135150;27;20038;-52
2021/07/05 08:00:36;;;;;;;0.98;0.57;;;;;;;16.23;100.00;98666.63;5134946;27;20503;-53
2021/07/05 08:03:40;;;;;;;1.05;0.35;;;;;;;16.38;100.00;98664.00;5134990;27;20538;-53
2021/07/05 08:06:43;;;;;;;1.73;0.45;;;;;;;16.57;100.00;98675.84;5135000;27;20050;-52
2021/07/05 08:09:47;;;;;;;0.32;0.20;;;;;;;16.63;100.00;98679.28;5134566;27;20058;-52
2021/07/05 08:12:51;;;;;;;2.53;0.45;;;;;;;16.56;100.00;98673.59;5134220;27;20375;-53
2021/07/05 08:15:54;;;;;;;1.35;0.93;;;;;;;16.37;100.00;98665.28;5135208;27;20148;-53
2021/07/05 08:18:58;;;;;;;1.05;0.25;;;;;;;16.17;100.00;98660.38;5134662;27;20058;-52
2021/07/05 08:22:02;;;;;;;6.47;0.88;;;;;;;16.04;100.00;98663.19;5134129;27;20046;-52
2021/07/05 08:25:07;;;;;;;2.25;0.30;;;;;;;16.01;100.00;98658.66;5134640;27;20100;-52
2021/07/05 08:28:11;;;;;;;0.80;0.10;;;;;;;16.09;100.00;98658.75;5134184;27;20391;-52
2021/07/05 08:31:14;;;;;;;1.05;0.45;;;;;;;16.14;100.00;98661.44;5133887;27;20042;-52
2021/07/05 08:34:18;;;;;;;3.15;0.25;;;;;;;16.03;100.00;98652.47;5133772;27;20152;-53
2021/07/05 08:37:22;;;;;;;0.35;0.10;;;;;;;16.03;100.00;98646.88;5134076;27;20042;-52
2021/07/05 08:40:26;;;;;;;0.43;0.10;;;;;;;15.96;100.00;98650.34;5134040;27;20042;-52
2021/07/05 08:43:31;;;;;;;0.20;0.13;;;;;;;15.79;100.00;98650.66;5134295;27;20050;-52
2021/07/05 08:46:35;;;;;;;0.30;0.10;;;;;;;15.61;100.00;98654.34;5134097;27;20042;-52
2021/07/05 08:49:39;;;;;;;1.58;0.22;;;;;;;15.77;100.00;98650.44;5133949;27;20050;-52
2021/07/05 08:52:45;;;;;;;0.22;0.10;;;;;;;16.22;100.00;98656.66;5133799;27;20057;-53
2021/07/05 08:55:48;;;;;;;0.25;0.22;;;;;;;16.21;100.00;98657.22;5134064;27;20485;-52
2021/07/05 08:58:52;;;;;;;0.10;0.00;;;;;;;16.26;100.00;98647.94;5133121;27;20406;-52
2021/07/05 09:01:56;;;;;;;3.90;0.25;;;;;;;16.72;100.00;98658.38;5133609;27;20046;-52
2021/07/05 09:05:00;;;;;;;0.20;0.20;;;;;;;16.65;100.00;98664.72;5133675;27;20058;-52
2021/07/05 09:08:11;;;;;;;1.50;0.10;;;;;;;16.84;100.00;98653.25;5133406;27;20046;-52
2021/07/05 09:11:19;;;;;;;3.13;0.30;;;;;;;17.48;100.00;98630.94;5133489;27;20053;-52
2021/07/05 09:14:24;;;;;;;1.58;0.10;;;;;;;17.98;100.00;98621.84;5133551;27;20050;-52
2021/07/05 09:17:33;;;;;;;0.63;0.57;;;;;;;18.30;100.00;98635.53;5133702;27;20042;-52
2021/07/05 09:20:36;;;;;;;0.55;0.15;;;;;;;18.10;100.00;98635.03;5133398;27;20046;-53
2021/07/05 09:23:55;;;;;;;9.32;0.10;;;;;;;17.87;100.00;98639.81;5131133;27;20057;-53
2021/07/05 09:27:18;;;;;;;0.10;0.10;;;;;;;17.66;100.00;98633.50;5113553;28;20047;-53
2021/07/05 09:30:21;;;;;;;0.20;0.00;;;;;;;18.10;100.00;98629.41;5112701;28;20043;-53
2021/07/05 09:33:27;;;;;;;1.65;0.17;;;;;;;18.42;100.00;98616.94;5112871;28;20430;-52
2021/07/05 09:36:30;;;;;;;0.10;0.00;;;;;;;18.97;100.00;98612.38;5112214;28;20039;-53
2021/07/05 09:39:34;;;;;;;0.10;0.00;;;;;;;18.97;100.00;98611.63;5112148;28;20510;-53
2021/07/05 09:42:44;;;;;;;0.20;0.13;;;;;;;18.51;100.00;98616.44;5112781;28;20047;-53
2021/07/05 09:45:47;;;;;;;0.20;0.10;;;;;;;18.22;100.00;98626.25;5113149;28;20050;-52
2021/07/05 09:48:51;;;;;;;0.45;0.10;;;;;;;17.72;100.00;98617.22;5112800;28;20494;-52
2021/07/05 09:52:09;;;;;;;0.13;0.10;;;;;;;17.15;100.00;98616.41;5111948;28;20046;-53
2021/07/05 09:55:15;;;;;;;0.30;0.00;;;;;;;16.99;100.00;98608.41;5112848;28;20510;-52
2021/07/05 09:58:31;;;;;;;0.10;0.05;;;;;;;16.96;100.00;98606.69;5112721;28;20043;-52
2021/07/05 10:01:39;;;;;;;0.70;0.20;;;;;;;17.35;100.00;98612.06;5112396;28;20042;-53
2021/07/05 10:04:45;;;;;;;2.45;0.20;;;;;;;17.46;100.00;98611.75;5100105;28;20046;-52
2021/07/05 10:08:02;;;;;;;0.20;0.10;;;;;;;17.48;100.00;98620.41;5112882;28;20055;-52
2021/07/05 10:11:06;;;;;;;0.10;0.10;;;;;;;17.39;100.00;98627.28;5112405;28;20047;-52
2021/07/05 10:14:20;;;;;;;1.58;0.52;;;;;;;17.00;100.00;98633.16;5100031;28;20066;-52
2021/07/05 10:17:25;;;;;;;0.10;0.10;;;;;;;16.73;100.00;98639.47;5112579;28;20047;-52
2021/07/05 10:20:31;;;;;;;1.00;0.20;;;;;;;16.45;100.00;98651.31;5112054;28;20039;-52
2021/07/05 10:23:37;;;;;;;2.72;0.30;;;;;;;16.10;100.00;98661.03;5113620;28;20483;-51
2021/07/05 10:26:41;;;;;;;0.10;0.00;;;;;;;15.79;100.00;98659.09;5132462;28;20549;-51
2021/07/05 10:29:47;;;;;;;0.98;0.40;;;;;;;15.58;100.00;98672.25;5132916;27;20515;-50
2021/07/05 10:32:52;;;;;;;2.90;0.40;;;;;;;15.60;100.00;98675.28;5132879;28;20534;-51
2021/07/05 10:35:57;;;;;;;0.65;0.20;;;;;;;15.65;100.00;98660.41;5133796;27;20059;-51
2021/07/05 10:39:04;;;;;;;0.20;0.10;;;;;;;15.79;100.00;98670.31;5136011;27;20062;-51
2021/07/05 10:42:37;;;;;;;2.90;0.30;;;;;;;15.95;100.00;98666.44;5136356;27;20046;-51
2021/07/05 10:45:52;;;;;;;0.10;0.00;;;;;;;16.06;100.00;98677.44;5136121;27;20054;-51
2021/07/05 10:48:55;;;;;;;6.05;0.52;;;;;;;16.13;100.00;98679.59;5135973;27;20062;-51
2021/07/05 10:52:03;;;;;;;2.60;0.47;;;;;;;16.15;100.00;98679.81;5135877;27;20394;-52
2021/07/05 10:55:07;;;;;;;0.10;0.10;;;;;;;16.11;100.00;98668.16;5135988;27;20050;-51
2021/07/05 10:58:21;;;;;;;0.30;0.20;;;;;;;15.94;100.00;98671.28;5123838;27;20046;-51
2021/07/05 11:01:44;;;;;;;0.38;0.25;;;;;;;15.73;100.00;98661.25;5135778;27;20062;-52
2021/07/05 11:04:49;;;;;;;0.75;0.20;;;;;;;15.48;100.00;98662.75;5136156;27;20072;-51
2021/07/05 11:07:55;;;;;;;0.80;0.50;;;;;;;15.32;100.00;98655.34;5136174;27;20050;-51
2021/07/05 11:11:25;;;;;;;0.43;0.10;;;;;;;15.42;100.00;98671.25;5136041;27;20042;-51
2021/07/05 11:14:48;;;;;;;0.20;0.10;;;;;;;15.70;100.00;98670.78;5135475;27;20054;-51
2021/07/05 11:17:52;;;;;;;0.43;0.20;;;;;;;15.98;100.00;98673.78;5135854;27;20058;-51
2021/07/05 11:20:55;;;;;;;0.73;0.55;;;;;;;16.22;100.00;98684.75;5135516;27;20042;-51
2021/07/05 11:24:04;;;;;;;1.33;0.22;;;;;;;16.44;100.00;98687.09;5131103;27;20510;-51
2021/07/05 11:27:46;;;;;;;0.80;0.43;;;;;;;16.71;100.00;98662.50;5115290;28;20046;-52
2021/07/05 11:30:50;;;;;;;0.40;0.10;;;;;;;16.89;100.00;98663.63;5117451;28;20058;-52
2021/07/05 11:33:53;;;;;;;1.65;0.28;;;;;;;16.99;100.00;98654.16;5114764;28;20054;-54
2021/07/05 11:37:12;;;;;;;2.55;0.22;;;;;;;17.11;100.00;98655.38;5114528;28;20384;-53
2021/07/05 11:40:40;;;;;;;2.25;0.45;;;;;;;17.30;100.00;98652.38;5114586;28;20059;-52
2021/07/05 11:44:04;;;;;;;0.43;0.20;;;;;;;17.43;100.00;98647.38;5114514;28;20506;-52
2021/07/05 11:47:08;;;;;;;4.65;0.93;;;;;;;17.44;100.00;98640.47;5115029;28;20054;-52
2021/07/05 11:50:15;;;;;;;0.73;0.57;;;;;;;17.54;100.00;98646.41;5114393;28;20388;-52
2021/07/05 11:53:18;;;;;;;0.40;0.10;;;;;;;17.94;100.00;98644.75;5114940;28;20047;-52
2021/07/05 11:56:46;;;;;;;3.42;0.38;;;;;;;18.35;100.00;98652.25;5101502;28;20502;-52
2021/07/05 11:59:54;;;;;;;0.95;0.30;;;;;;;18.75;100.00;98652.59;5114759;28;20049;-53
2021/07/05 12:03:13;;;;;;;3.78;0.20;;;;;;;19.15;100.00;98638.72;5113955;28;20039;-52
2021/07/05 12:06:18;;;;;;;0.10;0.00;;;;;;;19.40;100.00;98631.97;5114750;28;20050;-52
2021/07/05 12:09:27;;;;;;;4.68;0.30;;;;;;;19.53;100.00;98631.03;5114306;28;20098;-53
2021/07/05 12:12:30;;;;;;;1.20;0.30;;;;;;;19.43;100.00;98635.72;5114277;28;20038;-53
2021/07/05 12:15:34;;;;;;;3.10;0.45;;;;;;;19.31;100.00;98635.34;5114193;28;20055;-52
2021/07/05 12:18:39;;;;;;;2.88;0.05;;;;;;;19.16;100.00;98629.69;5114022;28;20046;-53
2021/07/05 12:21:44;;;;;;;0.10;0.00;;;;;;;18.95;100.00;98626.28;5113996;28;20383;-53
2021/07/05 12:24:51;;;;;;;0.60;0.25;;;;;;;19.09;100.00;98612.75;5125343;27;20050;-54
2021/07/05 12:28:06;;;;;;;2.63;0.30;;;;;;;18.84;100.00;98618.22;5134246;27;20042;-54
2021/07/05 12:31:09;;;;;;;1.10;0.55;;;;;;;19.01;100.00;98609.94;5134764;27;20038;-53
2021/07/05 12:34:38;;;;;;;1.55;0.20;;;;;;;19.10;100.00;98617.81;5134703;27;20050;-54
2021/07/05 12:37:44;;;;;;;1.05;0.50;;;;;;;19.17;100.00;98608.59;5133843;27;20046;-54
2021/07/05 12:40:48;;;;;;;1.85;0.20;;;;;;;19.23;100.00;98611.25;5134027;27;20042;-54
2021/07/05 12:43:51;;;;;;;7.78;0.20;;;;;;;19.23;100.00;98609.16;5134063;27;20050;-53
2021/07/05 12:46:54;;;;;;;0.50;0.20;;;;;;;19.35;100.00;98593.38;5134281;27;20054;-54
2021/07/05 12:49:58;;;;;;;2.25;0.30;;;;;;;19.49;100.00;98588.28;5134029;27;20066;-54
2021/07/05 12:53:02;;;;;;;0.95;0.20;;;;;;;19.67;100.00;98593.50;5134136;27;20042;-54
2021/07/05 12:56:05;;;;;;;4.88;0.10;;;;;;;19.67;100.00;98593.50;5134212;27;20050;-54
2021/07/05 12:59:19;;;;;;;1.17;0.15;;;;;;;19.89;100.00;98594.00;5133681;27;20047;-54
2021/07/05 13:02:43;;;;;;;0.10;0.05;;;;;;;20.12;100.00;98597.53;5133248;27;20501;-53
2021/07/05 13:05:46;;;;;;;1.73;0.03;;;;;;;20.25;100.00;98600.09;5134098;27;20050;-53
2021/07/05 13:08:59;;;;;;;0.20;0.10;;;;;;;20.16;100.00;98604.25;5134517;27;20046;-53
2021/07/05 13:12:09;;;;;;;0.75;0.10;;;;;;;19.94;100.00;98588.16;5134011;27;20050;-53
2021/07/05 13:15:17;;;;;;;0.32;0.10;;;;;;;19.80;100.00;98592.53;5134047;27;20082;-54
2021/07/05 13:18:23;;;;;;;0.22;0.10;;;;;;;19.86;100.00;98589.50;5120445;27;20038;-54
2021/07/05 13:21:35;;;;;;;1.23;0.22;;;;;;;19.92;100.00;98578.75;5133564;27;20047;-54
2021/07/05 13:24:46;;;;;;;1.65;0.08;;;;;;;20.10;100.00;98583.19;5112258;28;20038;-54
2021/07/05 13:27:52;;;;;;;0.52;0.10;;;;;;;20.07;100.00;98590.00;5112704;28;20046;-54
2021/07/05 13:30:56;;;;;;;0.10;0.05;;;;;;;20.08;100.00;98588.66;5113374;28;20491;-54
2021/07/05 13:33:59;;;;;;;0.10;0.10;;;;;;;19.92;100.00;98587.22;5113492;28;20050;-54
2021/07/05 13:37:06;;;;;;;5.05;0.10;;;;;;;19.87;100.00;98580.47;5113376;28;20051;-54
2021/07/05 13:40:14;;;;;;;0.73;0.00;;;;;;;20.10;100.00;98569.81;5112504;28;20515;-54
2021/07/05 13:43:20;;;;;;;0.43;0.10;;;;;;;20.28;100.00;98576.34;5110707;28;20047;-54
2021/07/05 13:46:23;;;;;;;1.10;0.13;;;;;;;20.52;100.00;98566.41;5111147;28;20055;-55
2021/07/05 13:49:27;;;;;;;0.75;0.00;;;;;;;20.61;100.00;98563.72;5111284;28;20042;-54
2021/07/05 13:52:32;;;;;;;0.03;0.00;;;;;;;20.63;100.00;98571.63;5111758;28;20043;-54
2021/07/05 13:55:37;;;;;;;0.10;0.03;;;;;;;20.59;100.00;98568.44;5112715;28;20545;-54
2021/07/05 13:58:51;;;;;;;0.35;0.20;;;;;;;20.37;100.00;98570.09;5113174;28;20499;-54
2021/07/05 14:01:54;;;;;;;1.88;0.00;;;;;;;20.23;100.00;98574.47;5113216;28;20043;-54
2021/07/05 14:04:59;;;;;;;2.67;0.20;;;;;;;20.07;100.00;98573.03;5112721;28;20055;-54
2021/07/05 14:08:05;;;;;;;0.10;0.00;;;;;;;19.85;100.00;98573.88;5113015;28;20470;-54
2021/07/05 14:11:11;;;;;;;0.28;0.10;;;;;;;19.38;100.00;98568.91;5114400;28;20046;-54
2021/07/05 14:14:15;;;;;;;1.38;0.20;;;;;;;18.92;100.00;98573.81;5116978;28;20042;-54
2021/07/05 14:17:18;;;;;;;4.63;0.17;;;;;;;18.58;100.00;98559.31;5116716;28;20043;-54
2021/07/05 14:20:22;;;;;;;1.20;0.10;;;;;;;18.29;100.00;98561.47;5116311;28;20039;-54
2021/07/05 14:23:26;;;;;;;0.40;0.10;;;;;;;18.04;100.00;98557.66;5116661;28;20046;-54